sensor_id;sensor_type;location;lat;lon;timestamp;P1;durP1;ratioP1;P2;durP2;ratioP2
8857;SDS011;4465;50.904;4.696;2023-11-22T15:19:58;29.23;;;11.80;;
8857;SDS011;4465;50.904;4.696;2023-11-22T15:22:24;24.42;;;11.23;;
8857;SDS011;4465;50.904;4.696;2023-11-22T15:24:49;29.50;;;11.45;;
8857;SDS011;4465;50.904;4.696;2023-11-22T15:27:15;25.88;;;10.98;;
8857;SDS011;4465;50.904;4.696;2023-11-22T15:29:41;28.80;;;11.15;;
8857;SDS011;4465;50.904;4.696;2023-11-22T15:32:07;24.13;;;10.65;;
8857;SDS011;4465;50.904;4.696;2023-11-22T15:34:38;27.92;;;11.63;;
8857;SDS011;4465;50.904;4.696;2023-11-22T15:37:04;29.48;;;11.68;;
8857;SDS011;4465;50.904;4.696;2023-11-22T15:39:29;23.23;;;10.32;;
8857;SDS011;4465;50.904;4.696;2023-11-22T15:41:55;26.73;;;11.38;;
8857;SDS011;4465;50.904;4.696;2023-11-22T15:44:23;29.75;;;11.63;;
8857;SDS011;4465;50.904;4.696;2023-11-22T15:46:51;26.55;;;11.35;;
8857;SDS011;4465;50.904;4.696;2023-11-22T15:49:17;24.30;;;10.93;;
8857;SDS011;4465;50.904;4.696;2023-11-22T15:51:48;25.38;;;11.35;;
8857;SDS011;4465;50.904;4.696;2023-11-22T15:54:16;22.58;;;9.85;;
8857;SDS011;4465;50.904;4.696;2023-11-22T15:56:46;26.58;;;11.35;;
8857;SDS011;4465;50.904;4.696;2023-11-22T15:59:14;25.23;;;10.60;;
8857;SDS011;4465;50.904;4.696;2023-11-22T16:01:42;27.48;;;11.57;;
8857;SDS011;4465;50.904;4.696;2023-11-22T16:04:08;24.23;;;11.23;;
8857;SDS011;4465;50.904;4.696;2023-11-22T16:06:34;25.98;;;11.40;;
8857;SDS011;4465;50.904;4.696;2023-11-22T16:09:03;26.15;;;11.27;;
8857;SDS011;4465;50.904;4.696;2023-11-22T16:11:32;24.98;;;11.25;;
8857;SDS011;4465;50.904;4.696;2023-11-22T16:13:59;27.25;;;11.45;;
8857;SDS011;4465;50.904;4.696;2023-11-22T16:16:25;29.48;;;11.20;;
8857;SDS011;4465;50.904;4.696;2023-11-22T16:18:52;26.77;;;11.52;;
8857;SDS011;4465;50.904;4.696;2023-11-22T16:23:45;27.63;;;10.52;;
8857;SDS011;4465;50.904;4.696;2023-11-22T16:26:11;24.15;;;10.55;;
8857;SDS011;4465;50.904;4.696;2023-11-22T16:28:37;26.35;;;11.27;;
8857;SDS011;4465;50.904;4.696;2023-11-22T16:31:04;27.38;;;11.95;;
8857;SDS011;4465;50.904;4.696;2023-11-22T16:33:35;28.77;;;12.35;;
8857;SDS011;4465;50.904;4.696;2023-11-22T16:36:01;28.52;;;12.45;;
8857;SDS011;4465;50.904;4.696;2023-11-22T16:38:27;31.23;;;12.45;;
8857;SDS011;4465;50.904;4.696;2023-11-22T16:40:53;33.13;;;13.20;;
8857;SDS011;4465;50.904;4.696;2023-11-22T16:43:23;31.08;;;13.13;;
8857;SDS011;4465;50.904;4.696;2023-11-22T16:45:50;29.83;;;13.00;;
8857;SDS011;4465;50.904;4.696;2023-11-22T16:48:16;31.08;;;12.68;;
8857;SDS011;4465;50.904;4.696;2023-11-22T16:50:42;31.08;;;11.35;;
8857;SDS011;4465;50.904;4.696;2023-11-22T16:53:11;28.30;;;12.95;;
8857;SDS011;4465;50.904;4.696;2023-11-22T16:55:39;32.10;;;13.18;;
8857;SDS011;4465;50.904;4.696;2023-11-22T16:58:06;30.75;;;11.05;;
8857;SDS011;4465;50.904;4.696;2023-11-22T17:00:32;32.60;;;13.52;;
8857;SDS011;4465;50.904;4.696;2023-11-22T17:03:00;32.28;;;13.75;;
8857;SDS011;4465;50.904;4.696;2023-11-22T17:05:29;31.33;;;13.27;;
8857;SDS011;4465;50.904;4.696;2023-11-22T17:07:55;37.08;;;14.25;;
8857;SDS011;4465;50.904;4.696;2023-11-22T17:10:25;32.88;;;14.25;;
8857;SDS011;4465;50.904;4.696;2023-11-22T17:12:51;41.28;;;14.30;;
8857;SDS011;4465;50.904;4.696;2023-11-22T17:15:17;33.90;;;14.52;;
8857;SDS011;4465;50.904;4.696;2023-11-22T17:17:44;32.17;;;13.90;;
8857;SDS011;4465;50.904;4.696;2023-11-22T17:20:13;34.03;;;14.48;;
8857;SDS011;4465;50.904;4.696;2023-11-22T17:22:43;33.10;;;14.95;;
8857;SDS011;4465;50.904;4.696;2023-11-22T17:25:09;35.13;;;14.55;;
8857;SDS011;4465;50.904;4.696;2023-11-22T17:27:38;39.40;;;14.60;;
8857;SDS011;4465;50.904;4.696;2023-11-22T17:30:08;37.70;;;14.85;;
8857;SDS011;4465;50.904;4.696;2023-11-22T17:32:37;38.90;;;14.07;;
8857;SDS011;4465;50.904;4.696;2023-11-22T17:35:03;37.08;;;14.05;;
8857;SDS011;4465;50.904;4.696;2023-11-22T17:37:32;40.03;;;14.90;;
8857;SDS011;4465;50.904;4.696;2023-11-22T17:39:58;35.42;;;15.65;;
8857;SDS011;4465;50.904;4.696;2023-11-22T17:42:25;41.53;;;16.20;;
8857;SDS011;4465;50.904;4.696;2023-11-22T17:44:53;39.45;;;15.23;;
8857;SDS011;4465;50.904;4.696;2023-11-22T17:47:22;40.75;;;15.82;;
8857;SDS011;4465;50.904;4.696;2023-11-22T17:49:48;38.05;;;15.65;;
8857;SDS011;4465;50.904;4.696;2023-11-22T17:52:16;41.42;;;15.70;;
8857;SDS011;4465;50.904;4.696;2023-11-22T17:54:42;38.22;;;16.85;;
8857;SDS011;4465;50.904;4.696;2023-11-22T17:57:09;40.45;;;16.67;;
8857;SDS011;4465;50.904;4.696;2023-11-22T17:59:37;41.67;;;15.90;;
8857;SDS011;4465;50.904;4.696;2023-11-22T18:04:30;43.03;;;16.02;;
8857;SDS011;4465;50.904;4.696;2023-11-22T18:07:00;49.35;;;17.77;;
8857;SDS011;4465;50.904;4.696;2023-11-22T18:09:26;53.53;;;18.20;;
8857;SDS011;4465;50.904;4.696;2023-11-22T18:11:52;50.55;;;18.55;;
8857;SDS011;4465;50.904;4.696;2023-11-22T18:14:18;53.08;;;17.98;;
8857;SDS011;4465;50.904;4.696;2023-11-22T18:16:44;52.55;;;19.15;;
8857;SDS011;4465;50.904;4.696;2023-11-22T18:19:12;47.22;;;18.73;;
8857;SDS011;4465;50.904;4.696;2023-11-22T18:21:40;52.17;;;18.88;;
8857;SDS011;4465;50.904;4.696;2023-11-22T18:24:07;47.28;;;18.10;;
8857;SDS011;4465;50.904;4.696;2023-11-22T18:26:36;51.28;;;20.15;;
8857;SDS011;4465;50.904;4.696;2023-11-22T18:29:04;52.78;;;20.67;;
8857;SDS011;4465;50.904;4.696;2023-11-22T18:31:30;59.28;;;20.05;;
8857;SDS011;4465;50.904;4.696;2023-11-22T18:33:56;59.60;;;20.02;;
8857;SDS011;4465;50.904;4.696;2023-11-22T18:36:23;58.17;;;20.58;;
8857;SDS011;4465;50.904;4.696;2023-11-22T18:38:50;54.05;;;19.48;;
8857;SDS011;4465;50.904;4.696;2023-11-22T18:41:18;49.17;;;18.98;;
8857;SDS011;4465;50.904;4.696;2023-11-22T18:43:47;49.38;;;19.02;;
8857;SDS011;4465;50.904;4.696;2023-11-22T18:46:19;54.80;;;19.70;;
8857;SDS011;4465;50.904;4.696;2023-11-22T18:48:49;52.85;;;20.00;;
8857;SDS011;4465;50.904;4.696;2023-11-22T18:51:15;46.75;;;18.88;;
8857;SDS011;4465;50.904;4.696;2023-11-22T18:53:41;51.85;;;20.20;;
8857;SDS011;4465;50.904;4.696;2023-11-22T18:56:06;59.67;;;20.88;;
8857;SDS011;4465;50.904;4.696;2023-11-22T18:58:34;47.35;;;19.77;;
8857;SDS011;4465;50.904;4.696;2023-11-22T19:01:00;52.30;;;17.38;;
8857;SDS011;4465;50.904;4.696;2023-11-22T19:03:26;47.63;;;19.17;;
8857;SDS011;4465;50.904;4.696;2023-11-22T19:05:54;50.15;;;19.50;;
8857;SDS011;4465;50.904;4.696;2023-11-22T19:08:21;50.13;;;20.30;;
8857;SDS011;4465;50.904;4.696;2023-11-22T19:10:47;53.22;;;19.85;;
8857;SDS011;4465;50.904;4.696;2023-11-22T19:13:13;52.50;;;18.83;;
8857;SDS011;4465;50.904;4.696;2023-11-22T19:15:42;54.42;;;20.60;;
8857;SDS011;4465;50.904;4.696;2023-11-22T19:18:11;53.45;;;20.58;;
8857;SDS011;4465;50.904;4.696;2023-11-22T19:20:38;51.47;;;19.27;;
8857;SDS011;4465;50.904;4.696;2023-11-22T19:23:05;52.08;;;18.80;;
8857;SDS011;4465;50.904;4.696;2023-11-22T19:25:31;59.03;;;20.58;;
8857;SDS011;4465;50.904;4.696;2023-11-22T19:27:58;51.08;;;18.38;;
8857;SDS011;4465;50.904;4.696;2023-11-22T19:30:25;56.28;;;19.75;;
8857;SDS011;4465;50.904;4.696;2023-11-22T19:32:51;51.38;;;18.90;;
8857;SDS011;4465;50.904;4.696;2023-11-22T19:35:17;52.97;;;19.33;;
8857;SDS011;4465;50.904;4.696;2023-11-22T19:37:43;51.88;;;19.70;;
8857;SDS011;4465;50.904;4.696;2023-11-22T19:40:09;55.83;;;22.00;;
8857;SDS011;4465;50.904;4.696;2023-11-22T19:42:35;50.40;;;19.83;;
8857;SDS011;4465;50.904;4.696;2023-11-22T19:45:01;53.72;;;20.17;;
8857;SDS011;4465;50.904;4.696;2023-11-22T19:47:30;50.38;;;20.67;;
8857;SDS011;4465;50.904;4.696;2023-11-22T19:49:56;50.53;;;19.37;;
8857;SDS011;4465;50.904;4.696;2023-11-22T19:52:25;54.47;;;21.10;;
8857;SDS011;4465;50.904;4.696;2023-11-22T19:54:51;50.25;;;19.42;;
8857;SDS011;4465;50.904;4.696;2023-11-22T19:57:17;51.70;;;19.52;;
8857;SDS011;4465;50.904;4.696;2023-11-22T19:59:43;46.30;;;19.27;;
8857;SDS011;4465;50.904;4.696;2023-11-22T20:02:09;50.95;;;19.35;;
8857;SDS011;4465;50.904;4.696;2023-11-22T20:04:35;54.25;;;20.52;;
8857;SDS011;4465;50.904;4.696;2023-11-22T20:07:01;46.90;;;18.20;;
8857;SDS011;4465;50.904;4.696;2023-11-22T20:09:29;53.13;;;19.30;;
8857;SDS011;4465;50.904;4.696;2023-11-22T20:11:55;46.60;;;18.42;;
8857;SDS011;4465;50.904;4.696;2023-11-22T20:14:24;49.25;;;18.75;;
8857;SDS011;4465;50.904;4.696;2023-11-22T20:16:50;45.83;;;19.33;;
8857;SDS011;4465;50.904;4.696;2023-11-22T20:19:16;45.35;;;18.65;;
8857;SDS011;4465;50.904;4.696;2023-11-22T20:21:42;54.75;;;19.13;;
8857;SDS011;4465;50.904;4.696;2023-11-22T20:24:10;47.25;;;18.50;;
8857;SDS011;4465;50.904;4.696;2023-11-22T20:26:36;45.40;;;18.35;;
8857;SDS011;4465;50.904;4.696;2023-11-22T20:29:02;50.42;;;18.17;;
8857;SDS011;4465;50.904;4.696;2023-11-22T20:31:30;47.65;;;18.90;;
8857;SDS011;4465;50.904;4.696;2023-11-22T20:33:59;46.30;;;17.90;;
8857;SDS011;4465;50.904;4.696;2023-11-22T20:36:27;40.15;;;17.30;;
8857;SDS011;4465;50.904;4.696;2023-11-22T20:38:53;48.50;;;18.05;;
8857;SDS011;4465;50.904;4.696;2023-11-22T20:41:19;45.70;;;17.02;;
8857;SDS011;4465;50.904;4.696;2023-11-22T20:43:46;43.50;;;17.02;;
8857;SDS011;4465;50.904;4.696;2023-11-22T20:46:13;45.47;;;17.10;;
8857;SDS011;4465;50.904;4.696;2023-11-22T20:48:41;46.88;;;17.70;;
8857;SDS011;4465;50.904;4.696;2023-11-22T20:51:07;45.78;;;17.55;;
8857;SDS011;4465;50.904;4.696;2023-11-22T20:53:34;47.57;;;17.97;;
8857;SDS011;4465;50.904;4.696;2023-11-22T20:56:02;48.38;;;17.77;;
8857;SDS011;4465;50.904;4.696;2023-11-22T20:58:31;44.72;;;17.05;;
8857;SDS011;4465;50.904;4.696;2023-11-22T21:03:27;39.40;;;15.80;;
8857;SDS011;4465;50.904;4.696;2023-11-22T21:05:55;42.35;;;15.93;;
8857;SDS011;4465;50.904;4.696;2023-11-22T21:08:22;45.55;;;16.80;;
8857;SDS011;4465;50.904;4.696;2023-11-22T21:10:48;40.00;;;15.43;;
8857;SDS011;4465;50.904;4.696;2023-11-22T21:13:16;40.85;;;16.48;;
8857;SDS011;4465;50.904;4.696;2023-11-22T21:18:11;41.17;;;15.38;;
8857;SDS011;4465;50.904;4.696;2023-11-22T21:20:37;43.83;;;16.48;;
8857;SDS011;4465;50.904;4.696;2023-11-22T21:23:03;47.53;;;17.42;;
8857;SDS011;4465;50.904;4.696;2023-11-22T21:25:29;42.05;;;17.20;;
8857;SDS011;4465;50.904;4.696;2023-11-22T21:27:55;45.78;;;17.48;;
8857;SDS011;4465;50.904;4.696;2023-11-22T21:30:23;40.60;;;15.82;;
8857;SDS011;4465;50.904;4.696;2023-11-22T21:32:49;41.40;;;16.38;;
8857;SDS011;4465;50.904;4.696;2023-11-22T21:35:15;34.88;;;13.85;;
8857;SDS011;4465;50.904;4.696;2023-11-22T21:37:44;39.22;;;15.10;;
8857;SDS011;4465;50.904;4.696;2023-11-22T21:40:10;42.85;;;15.95;;
8857;SDS011;4465;50.904;4.696;2023-11-22T21:42:40;36.90;;;14.73;;
8857;SDS011;4465;50.904;4.696;2023-11-22T21:45:12;37.22;;;15.45;;
8857;SDS011;4465;50.904;4.696;2023-11-22T21:47:38;42.55;;;16.45;;
8857;SDS011;4465;50.904;4.696;2023-11-22T21:50:04;41.65;;;15.25;;
8857;SDS011;4465;50.904;4.696;2023-11-22T21:52:33;39.15;;;15.82;;
8857;SDS011;4465;50.904;4.696;2023-11-22T21:54:59;46.67;;;15.18;;
8857;SDS011;4465;50.904;4.696;2023-11-22T21:57:27;42.47;;;14.77;;
8857;SDS011;4465;50.904;4.696;2023-11-22T21:59:53;37.22;;;14.50;;
8857;SDS011;4465;50.904;4.696;2023-11-22T22:02:19;38.67;;;14.23;;
8857;SDS011;4465;50.904;4.696;2023-11-22T22:04:45;40.15;;;14.52;;
8857;SDS011;4465;50.904;4.696;2023-11-22T22:07:12;40.83;;;13.35;;
8857;SDS011;4465;50.904;4.696;2023-11-22T22:09:41;40.40;;;14.70;;
8857;SDS011;4465;50.904;4.696;2023-11-22T22:12:08;42.33;;;14.55;;
8857;SDS011;4465;50.904;4.696;2023-11-22T22:14:34;35.25;;;14.10;;
8857;SDS011;4465;50.904;4.696;2023-11-22T22:17:02;35.72;;;14.50;;
8857;SDS011;4465;50.904;4.696;2023-11-22T22:19:30;37.55;;;13.38;;
8857;SDS011;4465;50.904;4.696;2023-11-22T22:21:56;39.20;;;13.35;;
8857;SDS011;4465;50.904;4.696;2023-11-22T22:24:23;33.80;;;13.25;;
8857;SDS011;4465;50.904;4.696;2023-11-22T22:26:50;30.05;;;11.77;;
8857;SDS011;4465;50.904;4.696;2023-11-22T22:29:16;37.70;;;12.97;;
8857;SDS011;4465;50.904;4.696;2023-11-22T22:31:44;32.83;;;12.40;;
8857;SDS011;4465;50.904;4.696;2023-11-22T22:34:10;30.33;;;12.27;;
8857;SDS011;4465;50.904;4.696;2023-11-22T22:36:39;34.63;;;12.25;;
8857;SDS011;4465;50.904;4.696;2023-11-22T22:39:07;35.47;;;12.35;;
8857;SDS011;4465;50.904;4.696;2023-11-22T22:41:34;34.75;;;13.25;;
8857;SDS011;4465;50.904;4.696;2023-11-22T22:44:00;29.95;;;12.38;;
8857;SDS011;4465;50.904;4.696;2023-11-22T22:46:26;27.33;;;11.40;;
8857;SDS011;4465;50.904;4.696;2023-11-22T22:48:52;32.97;;;11.55;;
8857;SDS011;4465;50.904;4.696;2023-11-22T22:51:18;29.35;;;11.07;;
8857;SDS011;4465;50.904;4.696;2023-11-22T22:53:46;27.88;;;11.70;;
8857;SDS011;4465;50.904;4.696;2023-11-22T22:56:18;31.08;;;11.60;;
8857;SDS011;4465;50.904;4.696;2023-11-22T22:58:45;24.27;;;9.95;;
8857;SDS011;4465;50.904;4.696;2023-11-22T23:01:11;22.40;;;9.38;;
8857;SDS011;4465;50.904;4.696;2023-11-22T23:03:40;21.77;;;9.82;;
8857;SDS011;4465;50.904;4.696;2023-11-22T23:06:08;26.35;;;10.13;;
8857;SDS011;4465;50.904;4.696;2023-11-22T23:08:37;28.50;;;9.52;;
8857;SDS011;4465;50.904;4.696;2023-11-22T23:11:03;21.67;;;9.35;;
8857;SDS011;4465;50.904;4.696;2023-11-22T23:13:35;23.63;;;9.68;;
8857;SDS011;4465;50.904;4.696;2023-11-22T23:16:01;23.15;;;8.82;;
8857;SDS011;4465;50.904;4.696;2023-11-22T23:18:29;23.63;;;9.23;;
8857;SDS011;4465;50.904;4.696;2023-11-22T23:20:55;23.23;;;10.35;;
8857;SDS011;4465;50.904;4.696;2023-11-22T23:23:21;23.63;;;10.00;;
8857;SDS011;4465;50.904;4.696;2023-11-22T23:25:47;27.67;;;9.90;;
8857;SDS011;4465;50.904;4.696;2023-11-22T23:28:15;24.45;;;10.40;;
8857;SDS011;4465;50.904;4.696;2023-11-22T23:30:41;25.92;;;10.00;;
8857;SDS011;4465;50.904;4.696;2023-11-22T23:33:07;29.58;;;10.43;;
8857;SDS011;4465;50.904;4.696;2023-11-22T23:35:33;27.27;;;10.60;;
8857;SDS011;4465;50.904;4.696;2023-11-22T23:38:02;25.05;;;9.45;;
8857;SDS011;4465;50.904;4.696;2023-11-22T23:40:27;26.08;;;9.48;;
8857;SDS011;4465;50.904;4.696;2023-11-22T23:42:58;33.72;;;10.25;;
8857;SDS011;4465;50.904;4.696;2023-11-22T23:45:31;25.77;;;10.65;;
8857;SDS011;4465;50.904;4.696;2023-11-22T23:47:58;24.85;;;10.05;;
8857;SDS011;4465;50.904;4.696;2023-11-22T23:50:24;27.80;;;10.05;;
8857;SDS011;4465;50.904;4.696;2023-11-22T23:52:52;27.40;;;11.07;;
8857;SDS011;4465;50.904;4.696;2023-11-22T23:55:20;29.98;;;9.63;;
8857;SDS011;4465;50.904;4.696;2023-11-22T23:57:46;25.75;;;9.85;;
